Time;durP1;ratioP1;P1;durP2;ratioP2;P2;SDS_P1;SDS_P2;PMS_P1;PMS_P2;Temp;Humidity;BMP_temperature;BMP_pressure;BME280_temperature;BME280_humidity;BME280_pressure;Samples;Min_cycle;Max_cycle;Signal;HPM_P1;HPM_P2
2021/07/26 00:01:29;;;;;;;4.80;4.50;;;25.10;66.10;;;;;;5066675;28;20020;-43
2021/07/26 00:03:55;;;;;;;4.30;4.10;;;25.10;66.10;;;;;;5070321;28;20035;-41
2021/07/26 00:06:20;;;;;;;4.45;4.18;;;25.10;66.10;;;;;;5067819;28;20031;-43
2021/07/26 00:08:46;;;;;;;4.90;4.50;;;25.00;66.20;;;;;;5065882;28;20035;-42
2021/07/26 00:11:12;;;;;;;5.47;5.18;;;25.00;66.00;;;;;;5068715;28;20401;-43
2021/07/26 00:13:38;;;;;;;4.60;4.30;;;25.00;66.10;;;;;;5067807;28;20075;-43
2021/07/26 00:16:04;;;;;;;4.63;4.43;;;25.00;66.20;;;;;;5068951;28;20523;-41
2021/07/26 00:18:29;;;;;;;4.60;4.32;;;24.90;66.30;;;;;;5066194;28;20029;-41
2021/07/26 00:20:55;;;;;;;4.57;4.38;;;24.90;66.40;;;;;;5066245;28;20409;-42
2021/07/26 00:23:21;;;;;;;4.72;4.53;;;24.90;67.40;;;;;;5048287;28;20029;-41
2021/07/26 00:25:47;;;;;;;5.05;4.75;;;24.90;66.60;;;;;;5069228;28;20046;-42
2021/07/26 00:28:13;;;;;;;4.97;4.78;;;24.90;66.80;;;;;;5068461;28;20525;-42
2021/07/26 00:30:38;;;;;;;4.38;4.07;;;24.80;66.80;;;;;;5066548;28;20036;-40
2021/07/26 00:34:04;;;;;;;5.38;5.07;;;24.90;66.70;;;;;;5066010;28;20500;-41
2021/07/26 00:36:30;;;;;;;4.55;4.35;;;24.80;66.70;;;;;;5065510;28;20032;-42
2021/07/26 00:38:56;;;;;;;4.85;4.63;;;24.90;66.90;;;;;;5065191;28;20028;-42
2021/07/26 00:41:22;;;;;;;4.90;4.70;;;24.80;66.80;;;;;;5047950;28;20064;-42
2021/07/26 00:43:48;;;;;;;5.45;5.15;;;24.80;66.80;;;;;;5068545;28;20404;-42
2021/07/26 00:46:13;;;;;;;5.20;4.80;;;24.80;66.80;;;;;;5068766;28;20415;-41
2021/07/26 00:48:39;;;;;;;4.43;4.22;;;24.80;66.90;;;;;;5047326;28;20029;-42
2021/07/26 00:51:05;;;;;;;5.20;4.90;;;24.80;67.00;;;;;;5042520;28;20036;-41
2021/07/26 00:53:31;;;;;;;4.93;4.63;;;24.80;67.10;;;;;;5039742;28;20036;-41
2021/07/26 00:55:57;;;;;;;5.13;4.88;;;24.80;66.90;;;;;;5055576;28;20028;-41
2021/07/26 00:58:22;;;;;;;5.55;5.25;;;24.80;66.90;;;;;;5054317;28;20024;-40
2021/07/26 01:00:48;;;;;;;5.18;4.88;;;24.80;66.90;;;;;;5038123;28;20029;-42
2021/07/26 01:03:13;;;;;;;5.20;4.90;;;24.80;67.00;;;;;;5057226;28;20085;-41
2021/07/26 01:05:39;;;;;;;5.18;4.88;;;24.80;67.00;;;;;;5039555;28;20025;-42
2021/07/26 01:08:05;;;;;;;4.50;4.30;;;24.70;66.90;;;;;;5056120;28;20586;-40
2021/07/26 01:10:30;;;;;;;5.00;4.70;;;24.80;67.00;;;;;;5052197;28;20028;-37
2021/07/26 01:12:56;;;;;;;5.15;4.95;;;24.80;67.00;;;;;;5056507;28;20052;-40
2021/07/26 01:15:22;;;;;;;5.10;4.65;;;24.80;67.10;;;;;;5057109;28;20086;-41
2021/07/26 01:18:17;;;;;;;4.68;4.47;;;24.70;67.10;;;;;;5038665;28;20021;-39
2021/07/26 01:20:42;;;;;;;5.40;5.10;;;24.70;67.20;;;;;;5056475;28;20112;-42
2021/07/26 01:23:08;;;;;;;5.57;5.28;;;24.70;67.20;;;;;;5057123;28;20150;-42
2021/07/26 01:25:37;;;;;;;4.50;4.30;;;24.70;67.10;;;;;;5054046;28;20520;-41
2021/07/26 01:28:03;;;;;;;5.13;4.85;;;24.70;67.30;;;;;;5067225;28;20512;-42
2021/07/26 01:30:29;;;;;;;4.40;4.20;;;24.70;67.30;;;;;;5056384;28;20044;-42
2021/07/26 01:32:54;;;;;;;5.00;4.70;;;24.70;67.30;;;;;;5056663;28;20071;-40
2021/07/26 01:35:20;;;;;;;4.88;4.68;;;24.70;67.30;;;;;;5056616;28;20037;-41
2021/07/26 01:37:45;;;;;;;5.07;4.78;;;24.70;67.30;;;;;;5053516;28;20108;-39
2021/07/26 01:40:12;;;;;;;4.82;4.57;;;24.70;67.30;;;;;;5054022;28;20092;-40
2021/07/26 01:42:42;;;;;;;4.63;4.43;;;24.70;67.30;;;;;;5065997;28;20029;-41
2021/07/26 01:45:08;;;;;;;4.30;4.10;;;24.70;67.30;;;;;;5065003;28;20056;-43
2021/07/26 01:47:34;;;;;;;4.60;4.40;;;24.70;67.30;;;;;;5064696;28;20029;-41
2021/07/26 01:50:07;;;;;;;4.78;4.57;;;24.70;67.20;;;;;;5047328;28;20087;-41
2021/07/26 01:52:32;;;;;;;4.88;4.68;;;24.70;67.20;;;;;;5018167;28;20127;-40
2021/07/26 01:54:58;;;;;;;4.45;4.25;;;24.70;68.00;;;;;;5021926;28;20108;-41
2021/07/26 01:57:24;;;;;;;5.00;4.70;;;24.60;67.40;;;;;;5056644;28;20490;-41
2021/07/26 01:59:51;;;;;;;4.13;3.92;;;24.70;67.40;;;;;;5040157;28;20107;-41
2021/07/26 02:02:16;;;;;;;4.45;4.25;;;24.70;67.30;;;;;;5042774;28;20028;-39
2021/07/26 02:04:42;;;;;;;4.57;4.38;;;24.70;67.30;;;;;;5057409;28;20025;-41
2021/07/26 02:07:07;;;;;;;4.70;4.50;;;24.70;67.30;;;;;;5040862;28;20083;-40
2021/07/26 02:09:34;;;;;;;4.82;4.53;;;24.70;67.20;;;;;;5068672;28;20029;-41
2021/07/26 02:12:01;;;;;;;4.47;4.28;;;24.70;67.20;;;;;;5064305;28;20068;-41
2021/07/26 02:14:27;;;;;;;4.45;4.25;;;24.60;67.40;;;;;;5058655;28;20525;-40
2021/07/26 02:16:53;;;;;;;4.57;4.28;;;24.60;67.30;;;;;;5058338;28;20028;-39
2021/07/26 02:19:20;;;;;;;4.70;4.40;;;24.60;67.40;;;;;;5039280;28;20478;-41
2021/07/26 02:21:45;;;;;;;4.10;3.90;;;24.60;67.40;;;;;;5059399;28;20021;-40
2021/07/26 02:24:11;;;;;;;4.70;4.50;;;24.60;67.40;;;;;;5060248;28;20501;-41
2021/07/26 02:26:37;;;;;;;4.70;4.47;;;24.60;67.40;;;;;;5060241;28;20405;-41
2021/07/26 02:29:02;;;;;;;4.78;4.57;;;24.60;67.40;;;;;;5040936;28;20032;-41
2021/07/26 02:31:28;;;;;;;4.53;4.32;;;24.60;67.30;;;;;;5056080;28;20032;-41
2021/07/26 02:33:54;;;;;;;4.25;4.05;;;24.60;67.40;;;;;;5059418;28;20107;-39
2021/07/26 02:36:19;;;;;;;4.47;4.18;;;24.60;67.40;;;;;;5059900;28;20075;-40
2021/07/26 02:38:45;;;;;;;4.88;4.57;;;24.60;67.50;;;;;;5059342;28;20413;-34
2021/07/26 02:41:11;;;;;;;4.50;4.28;;;24.60;67.50;;;;;;5041617;28;20082;-40
2021/07/26 02:43:37;;;;;;;4.75;4.55;;;24.60;67.50;;;;;;5055778;28;20021;-40
2021/07/26 02:46:05;;;;;;;4.88;4.68;;;24.60;67.40;;;;;;5059002;28;20025;-41
2021/07/26 02:48:34;;;;;;;5.05;4.85;;;24.70;67.30;;;;;;5059246;28;20037;-37
2021/07/26 02:51:00;;;;;;;4.13;3.92;;;24.60;68.10;;;;;;5059232;28;20021;-41
2021/07/26 02:53:26;;;;;;;4.85;4.65;;;24.60;67.40;;;;;;5059714;28;20477;-41
2021/07/26 02:55:51;;;;;;;4.60;4.40;;;24.60;67.40;;;;;;5039489;28;20029;-41
2021/07/26 02:58:17;;;;;;;4.65;4.35;;;24.60;67.40;;;;;;5057098;28;20470;-41
2021/07/26 03:00:45;;;;;;;4.53;4.32;;;24.60;67.40;;;;;;5058331;28;20439;-41
2021/07/26 03:03:11;;;;;;;4.40;4.07;;;24.60;67.40;;;;;;5059550;28;20032;-41
2021/07/26 03:05:36;;;;;;;4.10;3.90;;;24.60;67.30;;;;;;5059807;28;20171;-41
2021/07/26 03:08:02;;;;;;;4.15;3.95;;;24.60;67.30;;;;;;5058314;28;20032;-41
2021/07/26 03:10:28;;;;;;;3.95;3.75;;;24.60;67.20;;;;;;5054685;28;20032;-40
2021/07/26 03:12:53;;;;;;;4.07;3.88;;;24.60;67.20;;;;;;5057960;28;20509;-39
2021/07/26 03:15:21;;;;;;;4.45;4.25;;;24.60;67.30;;;;;;5059425;28;20075;-41
2021/07/26 03:17:47;;;;;;;4.40;4.13;;;24.60;67.40;;;;;;5058708;28;20021;-38
2021/07/26 03:20:13;;;;;;;4.03;3.85;;;24.50;67.30;;;;;;5058720;28;20039;-41
2021/07/26 03:22:57;;;;;;;4.57;4.38;;;24.60;67.30;;;;;;5055228;28;20547;-41
2021/07/26 03:25:23;;;;;;;3.38;3.28;;;24.60;67.40;;;;;;5056010;28;20446;-40
2021/07/26 03:27:49;;;;;;;4.50;4.28;;;24.50;67.40;;;;;;5068886;28;20067;-40
2021/07/26 03:30:16;;;;;;;4.53;4.20;;;24.50;67.40;;;;;;5060636;28;20559;-41
2021/07/26 03:32:41;;;;;;;4.22;4.03;;;24.60;67.30;;;;;;5058899;28;20400;-41
2021/07/26 03:35:07;;;;;;;4.80;4.60;;;24.50;67.30;;;;;;5058853;28;20482;-40
2021/07/26 03:37:33;;;;;;;4.25;4.05;;;24.50;67.40;;;;;;5054444;28;20036;-40
2021/07/26 03:39:59;;;;;;;3.80;3.70;;;24.50;67.50;;;;;;5039544;28;20112;-40
2021/07/26 03:42:24;;;;;;;4.40;4.20;;;24.50;67.40;;;;;;5058703;28;20025;-41
2021/07/26 03:44:50;;;;;;;4.72;4.43;;;24.50;67.30;;;;;;5058794;28;20385;-40
2021/07/26 03:47:15;;;;;;;4.05;3.85;;;24.50;67.20;;;;;;5040889;28;20024;-41
2021/07/26 03:49:41;;;;;;;4.45;4.25;;;24.50;67.30;;;;;;5054173;28;20402;-39
2021/07/26 03:52:06;;;;;;;4.47;4.25;;;24.50;67.30;;;;;;5057026;28;20028;-39
2021/07/26 03:54:32;;;;;;;4.35;4.15;;;24.60;67.20;;;;;;5053085;28;20029;-41
2021/07/26 03:56:58;;;;;;;5.20;4.90;;;24.60;67.20;;;;;;5058000;28;20070;-40
2021/07/26 03:59:24;;;;;;;4.07;3.88;;;24.60;67.20;;;;;;5057702;28;20036;-39
2021/07/26 04:01:53;;;;;;;4.13;3.83;;;24.60;67.30;;;;;;5055700;28;20495;-41
2021/07/26 04:04:18;;;;;;;4.18;3.92;;;24.60;67.30;;;;;;5055892;28;20371;-41
2021/07/26 04:06:48;;;;;;;4.93;4.72;;;24.60;67.20;;;;;;5068378;28;20550;-41
2021/07/26 04:09:14;;;;;;;4.18;3.97;;;24.60;67.10;;;;;;5059700;28;20611;-41
2021/07/26 04:11:40;;;;;;;4.47;4.28;;;24.60;67.00;;;;;;5057538;28;20124;-40
2021/07/26 04:14:08;;;;;;;4.05;3.83;;;24.60;67.00;;;;;;5057850;28;20043;-41
2021/07/26 04:16:34;;;;;;;4.47;4.28;;;24.70;66.70;;;;;;5053734;28;20048;-41
2021/07/26 04:19:02;;;;;;;4.50;4.30;;;24.70;66.70;;;;;;5056570;28;20394;-41
2021/07/26 04:21:32;;;;;;;4.20;4.00;;;24.70;66.90;;;;;;5065082;28;20025;-37
2021/07/26 04:23:58;;;;;;;4.57;4.38;;;24.60;67.00;;;;;;5061819;28;20031;-41
2021/07/26 04:26:24;;;;;;;4.78;4.57;;;24.60;67.00;;;;;;5063585;28;20029;-42
2021/07/26 04:28:49;;;;;;;4.53;4.32;;;24.60;67.10;;;;;;5049908;28;20157;-41
2021/07/26 04:31:15;;;;;;;4.50;4.30;;;24.60;67.00;;;;;;5068401;28;20025;-41
2021/07/26 04:33:40;;;;;;;4.47;4.28;;;24.60;67.00;;;;;;5067453;28;20535;-41
2021/07/26 04:36:06;;;;;;;4.10;3.90;;;24.60;67.10;;;;;;5066006;28;20107;-40
2021/07/26 04:38:32;;;;;;;4.68;4.47;;;24.70;66.80;;;;;;5065491;28;20009;-41
2021/07/26 04:40:58;;;;;;;4.45;4.25;;;24.70;66.70;;;;;;5066935;28;20032;-41
2021/07/26 04:43:23;;;;;;;4.80;4.60;;;24.60;66.70;;;;;;5051811;28;20574;-41
2021/07/26 04:45:49;;;;;;;4.25;4.05;;;24.70;66.70;;;;;;5056898;28;20045;-41
2021/07/26 04:48:15;;;;;;;4.03;3.83;;;24.60;66.70;;;;;;5056992;28;20474;-41
2021/07/26 04:50:41;;;;;;;3.97;3.78;;;24.60;67.60;;;;;;5060934;28;20082;-40
2021/07/26 04:53:06;;;;;;;4.75;4.55;;;24.60;67.60;;;;;;5076437;28;20107;-41
2021/07/26 04:55:32;;;;;;;4.22;4.03;;;24.60;66.80;;;;;;5077846;28;20484;-43
2021/07/26 04:57:58;;;;;;;4.15;3.95;;;24.60;67.10;;;;;;5076893;28;20104;-42
2021/07/26 05:00:26;;;;;;;4.15;3.95;;;24.60;67.00;;;;;;5077208;28;20391;-42
2021/07/26 05:02:55;;;;;;;4.30;4.10;;;24.50;67.10;;;;;;5076059;28;20035;-41
2021/07/26 05:05:20;;;;;;;4.18;3.97;;;24.50;67.00;;;;;;5048147;28;20016;-42
2021/07/26 05:07:46;;;;;;;4.50;4.30;;;24.60;66.80;;;;;;5075188;28;20117;-40
2021/07/26 05:10:11;;;;;;;4.15;3.95;;;24.60;66.70;;;;;;5078024;28;20783;-41
2021/07/26 05:12:37;;;;;;;3.95;3.75;;;24.60;66.60;;;;;;5081121;28;20510;-42
2021/07/26 05:15:03;;;;;;;5.07;4.88;;;24.60;66.60;;;;;;5055101;28;20024;-42
2021/07/26 05:17:29;;;;;;;4.60;4.30;;;24.60;66.70;;;;;;5050821;28;20072;-41
2021/07/26 05:19:54;;;;;;;5.10;4.80;;;24.60;66.60;;;;;;5059751;28;20021;-39
2021/07/26 05:22:20;;;;;;;4.50;4.30;;;24.50;66.80;;;;;;5067741;28;20027;-43
2021/07/26 05:24:46;;;;;;;4.97;4.68;;;24.50;67.10;;;;;;5039973;28;20478;-41
2021/07/26 05:27:12;;;;;;;4.55;4.30;;;24.50;67.10;;;;;;5071949;28;20390;-42
2021/07/26 05:29:37;;;;;;;6.55;4.70;;;24.50;67.10;;;;;;5068133;28;20024;-43
2021/07/26 05:32:03;;;;;;;4.72;4.53;;;24.50;67.20;;;;;;4720363;28;9999981;-42
2021/07/26 05:34:29;;;;;;;4.95;4.75;;;24.60;67.00;;;;;;5077016;28;20733;-42
2021/07/26 05:36:55;;;;;;;4.78;4.57;;;24.60;67.00;;;;;;5080839;28;20033;-42
2021/07/26 05:39:23;;;;;;;4.85;4.55;;;24.60;67.70;;;;;;5079061;28;20036;-42
2021/07/26 05:41:49;;;;;;;4.90;4.70;;;24.60;67.00;;;;;;5075353;28;20055;-42
2021/07/26 05:44:15;;;;;;;4.68;4.47;;;24.60;67.10;;;;;;5079110;28;20111;-43
2021/07/26 05:46:41;;;;;;;4.43;4.22;;;24.50;67.30;;;;;;5072931;28;20142;-43
2021/07/26 05:49:06;;;;;;;4.43;4.22;;;24.50;67.30;;;;;;5068841;28;20047;-42
2021/07/26 05:51:32;;;;;;;5.07;4.45;;;24.50;67.30;;;;;;5077851;28;20017;-43
2021/07/26 05:53:58;;;;;;;4.30;4.10;;;24.50;67.30;;;;;;5084186;28;20099;-42
2021/07/26 05:56:23;;;;;;;4.10;3.90;;;24.50;67.40;;;;;;5058199;28;20028;-42
2021/07/26 05:58:49;;;;;;;4.28;4.07;;;24.60;67.30;;;;;;5074375;28;20040;-42
2021/07/26 06:03:44;;;;;;;5.30;4.90;;;24.50;67.40;;;;;;5075796;28;20024;-42
2021/07/26 06:06:10;;;;;;;5.15;4.95;;;24.50;67.30;;;;;;5071043;28;20496;-41
2021/07/26 06:08:35;;;;;;;4.70;4.50;;;24.50;67.30;;;;;;5071405;28;20116;-41
2021/07/26 06:11:02;;;;;;;4.60;4.40;;;24.60;67.30;;;;;;5073474;28;20048;-41
2021/07/26 06:13:30;;;;;;;4.35;4.15;;;24.60;67.10;;;;;;5062262;28;20090;-41
2021/07/26 06:15:56;;;;;;;4.43;4.22;;;24.60;67.10;;;;;;5058499;28;20082;-41
2021/07/26 06:18:22;;;;;;;4.82;4.63;;;24.50;67.30;;;;;;5059054;28;20103;-40
2021/07/26 06:20:49;;;;;;;4.13;3.92;;;24.50;67.40;;;;;;5061163;28;20106;-41
2021/07/26 06:23:15;;;;;;;4.70;4.50;;;24.50;67.50;;;;;;5059162;28;20040;-40
2021/07/26 06:25:40;;;;;;;4.40;4.20;;;24.50;67.50;;;;;;5037311;28;20031;-36
2021/07/26 06:28:06;;;;;;;4.20;4.00;;;24.60;67.20;;;;;;5039845;28;20824;-40
2021/07/26 06:30:31;;;;;;;4.32;4.13;;;24.50;67.40;;;;;;5067345;28;20078;-41
2021/07/26 06:32:57;;;;;;;4.45;4.25;;;24.60;68.10;;;;;;5068106;28;20520;-41
2021/07/26 06:35:23;;;;;;;4.68;4.38;;;24.60;67.40;;;;;;5049367;28;20033;-41
2021/07/26 06:37:48;;;;;;;4.78;4.47;;;24.50;67.50;;;;;;5073961;28;20020;-44
2021/07/26 06:40:15;;;;;;;5.47;4.40;;;24.50;67.50;;;;;;5079923;28;20381;-39
2021/07/26 06:42:41;;;;;;;4.63;4.32;;;24.60;67.40;;;;;;5070011;28;20032;-35
2021/07/26 06:45:07;;;;;;;4.45;4.07;;;24.60;67.50;;;;;;5066422;28;20032;-41
2021/07/26 06:47:36;;;;;;;4.03;3.83;;;24.60;67.50;;;;;;5071074;28;20691;-41
2021/07/26 06:50:03;;;;;;;4.68;4.47;;;24.60;67.10;;;;;;5064951;28;20087;-38
2021/07/26 06:52:29;;;;;;;4.75;4.45;;;24.60;67.20;;;;;;5067863;28;20029;-39
2021/07/26 06:54:55;;;;;;;5.43;4.95;;;24.60;67.60;;;;;;5064538;28;20043;-42
2021/07/26 06:57:20;;;;;;;6.05;5.72;;;24.60;67.60;;;;;;5061569;28;20020;-41
2021/07/26 06:59:46;;;;;;;7.32;6.68;;;24.40;66.30;;;;;;5064394;28;20029;-41
2021/07/26 07:02:12;;;;;;;7.32;6.82;;;24.10;65.60;;;;;;5059198;28;20396;-42
2021/07/26 07:04:38;;;;;;;7.90;7.40;;;23.80;65.20;;;;;;5055101;28;20028;-40
2021/07/26 07:07:05;;;;;;;10.68;9.63;;;23.70;65.30;;;;;;5058090;28;20418;-44
2021/07/26 07:09:32;;;;;;;6.82;6.30;;;23.70;65.30;;;;;;5058309;28;20045;-42
2021/07/26 07:11:57;;;;;;;9.25;8.45;;;23.50;65.60;;;;;;5061771;28;20036;-41
2021/07/26 07:14:23;;;;;;;9.88;9.00;;;23.50;65.70;;;;;;5066980;28;20512;-42
2021/07/26 07:16:48;;;;;;;9.07;8.38;;;23.60;65.40;;;;;;5066936;28;20021;-42
2021/07/26 07:19:14;;;;;;;9.77;8.98;;;23.60;65.10;;;;;;5068848;28;20494;-42
2021/07/26 07:21:40;;;;;;;9.40;8.50;;;23.50;64.90;;;;;;5060269;28;20442;-43
2021/07/26 07:24:05;;;;;;;8.25;7.55;;;23.50;64.90;;;;;;5041649;28;20632;-42
2021/07/26 07:26:31;;;;;;;7.82;7.22;;;23.50;64.70;;;;;;5058370;28;20392;-40
2021/07/26 07:28:57;;;;;;;8.43;7.63;;;23.40;65.30;;;;;;5067992;28;20094;-42
2021/07/26 07:31:36;;;;;;;8.05;7.40;;;23.50;65.30;;;;;;5069511;28;20020;-41
2021/07/26 07:34:02;;;;;;;8.45;7.63;;;23.50;65.00;;;;;;5066815;28;20040;-42
2021/07/26 07:36:27;;;;;;;7.68;7.03;;;23.40;65.10;;;;;;5066977;28;20025;-39
2021/07/26 07:38:55;;;;;;;9.38;8.48;;;23.40;65.00;;;;;;5067990;28;20040;-44
2021/07/26 07:41:20;;;;;;;8.65;7.90;;;23.40;65.00;;;;;;5062528;28;20520;-40
2021/07/26 07:43:46;;;;;;;8.63;7.93;;;23.30;65.30;;;;;;5056216;28;20029;-40
2021/07/26 07:46:11;;;;;;;8.52;7.78;;;23.30;65.80;;;;;;5056255;28;20135;-41
2021/07/26 07:48:38;;;;;;;7.97;7.38;;;23.30;65.60;;;;;;5067633;28;20559;-41
2021/07/26 07:51:07;;;;;;;8.15;7.35;;;23.30;65.50;;;;;;5060701;28;20017;-41
2021/07/26 07:53:33;;;;;;;7.63;6.95;;;23.20;65.70;;;;;;5063714;28;20029;-42
2021/07/26 07:55:59;;;;;;;7.72;6.95;;;23.20;65.70;;;;;;5065970;28;20473;-41
2021/07/26 07:58:25;;;;;;;8.80;7.15;;;23.20;65.70;;;;;;5069585;28;20021;-40
2021/07/26 08:00:51;;;;;;;7.40;6.80;;;23.20;65.70;;;;;;5063513;28;20036;-45
2021/07/26 08:03:17;;;;;;;8.32;7.55;;;23.20;65.50;;;;;;5048584;28;20508;-42
2021/07/26 08:05:42;;;;;;;7.28;6.57;;;23.20;66.70;;;;;;5064835;28;20024;-44
2021/07/26 08:08:08;;;;;;;6.82;6.43;;;23.20;65.60;;;;;;5062240;28;20409;-38
2021/07/26 08:10:34;;;;;;;8.23;7.65;;;23.20;66.20;;;;;;5069137;28;20048;-41
2021/07/26 08:13:00;;;;;;;12.57;6.35;;;23.10;66.40;;;;;;5068518;28;20123;-42
2021/07/26 08:15:26;;;;;;;7.68;7.03;;;23.20;66.30;;;;;;5050132;28;20504;-42
2021/07/26 08:17:51;;;;;;;7.82;7.13;;;23.20;66.30;;;;;;5042210;28;20024;-42
2021/07/26 08:20:18;;;;;;;7.75;7.15;;;23.10;66.40;;;;;;5045313;28;20033;-42
2021/07/26 08:22:44;;;;;;;6.65;6.25;;;23.10;66.20;;;;;;5053744;28;20061;-42
2021/07/26 08:25:13;;;;;;;7.70;7.10;;;23.00;66.20;;;;;;5034659;28;20052;-41
2021/07/26 08:27:50;;;;;;;6.65;6.05;;;23.00;66.50;;;;;;5063109;28;20146;-41
2021/07/26 08:30:26;;;;;;;8.32;6.93;;;23.30;65.80;;;;;;5061834;28;20055;-41
2021/07/26 08:32:51;;;;;;;6.43;5.57;;;23.40;65.40;;;;;;5062155;28;20020;-42
2021/07/26 08:35:17;;;;;;;5.68;5.28;;;23.60;65.10;;;;;;5062387;28;20504;-41
2021/07/26 08:37:43;;;;;;;6.68;5.95;;;23.60;65.00;;;;;;5064815;28;20028;-41
2021/07/26 08:40:09;;;;;;;7.30;6.22;;;23.60;64.90;;;;;;5051812;28;20619;-42
2021/07/26 08:42:35;;;;;;;5.70;5.25;;;23.70;64.90;;;;;;5035799;28;20040;-42
2021/07/26 08:45:00;;;;;;;6.50;6.00;;;23.80;64.50;;;;;;5053527;28;20033;-42
2021/07/26 08:47:28;;;;;;;6.57;5.97;;;23.80;64.80;;;;;;5035956;28;20024;-42
2021/07/26 08:49:57;;;;;;;5.90;5.50;;;23.70;65.20;;;;;;5041597;28;20496;-41
2021/07/26 08:52:23;;;;;;;6.45;5.95;;;23.80;65.00;;;;;;5047341;28;20489;-40
2021/07/26 08:54:49;;;;;;;5.70;5.20;;;23.80;64.80;;;;;;5022927;28;20097;-41
2021/07/26 08:57:14;;;;;;;5.43;5.13;;;23.90;64.90;;;;;;5037222;28;20536;-44
2021/07/26 08:59:40;;;;;;;5.00;4.78;;;23.90;64.80;;;;;;5018613;28;20482;-42
2021/07/26 09:02:06;;;;;;;5.57;5.22;;;23.90;64.80;;;;;;5034876;28;20644;-42
2021/07/26 09:04:31;;;;;;;5.72;5.32;;;24.00;64.80;;;;;;5049635;28;20391;-42
2021/07/26 09:06:57;;;;;;;5.57;5.07;;;24.00;64.50;;;;;;5037366;28;20562;-41
2021/07/26 09:09:45;;;;;;;5.82;5.00;;;24.10;64.40;;;;;;5060593;28;20062;-42
2021/07/26 09:12:12;;;;;;;5.55;5.10;;;24.20;64.50;;;;;;5044733;28;20079;-43
2021/07/26 09:14:40;;;;;;;5.45;5.05;;;24.20;64.30;;;;;;5027654;28;20060;-40
2021/07/26 09:17:09;;;;;;;6.03;5.53;;;24.20;64.10;;;;;;5064568;28;20107;-41
2021/07/26 09:20:01;;;;;;;5.30;5.00;;;24.20;64.20;;;;;;4701786;28;10000448;-41
2021/07/26 09:22:35;;;;;;;5.63;5.13;;;24.30;64.00;;;;;;5060821;28;20088;-41
2021/07/26 09:25:26;;;;;;;5.35;5.05;;;24.20;64.20;;;;;;5052251;28;20087;-42
2021/07/26 09:28:09;;;;;;;5.85;5.45;;;24.20;64.40;;;;;;5042817;28;20045;-42
2021/07/26 09:30:54;;;;;;;4.90;4.60;;;24.20;64.40;;;;;;5052116;28;20452;-42
2021/07/26 09:33:23;;;;;;;5.50;4.95;;;24.20;64.40;;;;;;5056298;28;20613;-42
2021/07/26 09:36:12;;;;;;;6.35;5.80;;;24.20;64.40;;;;;;5051947;28;20029;-42
2021/07/26 09:38:42;;;;;;;5.57;5.28;;;24.20;64.40;;;;;;5060474;28;20072;-42
2021/07/26 09:41:08;;;;;;;5.45;4.97;;;24.30;64.40;;;;;;5034807;28;20404;-42
2021/07/26 09:43:34;;;;;;;6.28;5.78;;;24.30;64.30;;;;;;5047300;28;20028;-42
2021/07/26 09:45:59;;;;;;;6.03;5.53;;;24.30;64.40;;;;;;5062844;28;20402;-42
2021/07/26 09:48:30;;;;;;;5.55;5.25;;;24.30;64.00;;;;;;5030569;28;20522;-42
2021/07/26 09:50:57;;;;;;;4.95;4.65;;;24.30;64.80;;;;;;5060979;28;20044;-42
2021/07/26 09:53:23;;;;;;;5.75;5.35;;;24.30;63.80;;;;;;5060875;28;20029;-42
2021/07/26 09:55:51;;;;;;;6.10;5.70;;;24.30;63.80;;;;;;5050468;28;20032;-42
2021/07/26 09:58:18;;;;;;;5.90;5.40;;;24.30;63.90;;;;;;5048684;28;20024;-42
2021/07/26 10:00:44;;;;;;;5.75;5.43;;;24.20;63.80;;;;;;5061720;28;20104;-41
2021/07/26 10:03:12;;;;;;;6.43;5.93;;;24.30;64.10;;;;;;5061183;28;20031;-43
2021/07/26 10:05:38;;;;;;;6.07;5.68;;;24.20;63.70;;;;;;5061035;28;20330;-40
2021/07/26 10:08:05;;;;;;;5.68;5.25;;;24.20;63.90;;;;;;5062151;28;20036;-37
2021/07/26 10:10:34;;;;;;;5.80;5.50;;;24.20;64.00;;;;;;5064000;28;20043;-41
2021/07/26 10:13:00;;;;;;;5.45;5.00;;;24.30;64.60;;;;;;5057845;28;20051;-39
2021/07/26 10:15:27;;;;;;;5.35;4.97;;;24.30;63.40;;;;;;5054268;28;20028;-38
2021/07/26 10:17:53;;;;;;;5.82;5.43;;;24.20;63.40;;;;;;5023187;28;20027;-41
2021/07/26 10:20:26;;;;;;;5.22;4.88;;;24.30;64.00;;;;;;5063344;28;20024;-41
2021/07/26 10:22:56;;;;;;;5.15;4.75;;;24.30;63.70;;;;;;5038321;28;20043;-36
2021/07/26 10:25:44;;;;;;;4.68;4.35;;;24.30;63.80;;;;;;5070212;28;20020;-41
2021/07/26 10:28:22;;;;;;;4.82;4.63;;;24.30;64.40;;;;;;5082485;28;20101;-43
2021/07/26 10:30:48;;;;;;;5.53;5.03;;;24.30;63.80;;;;;;5020611;28;20060;-43
2021/07/26 10:33:14;;;;;;;5.25;4.95;;;24.30;63.60;;;;;;5041332;28;20060;-41
2021/07/26 10:35:59;;;;;;;6.05;5.55;;;24.30;63.60;;;;;;5063220;28;20043;-41
2021/07/26 10:38:54;;;;;;;6.30;5.22;;;24.30;63.60;;;;;;5053866;28;20090;-39
2021/07/26 10:41:55;;;;;;;5.45;4.95;;;24.30;63.30;;;;;;5044361;28;20083;-39
2021/07/26 10:44:21;;;;;;;4.93;4.63;;;24.40;63.30;;;;;;5064538;28;20502;-42
2021/07/26 10:47:10;;;;;;;5.32;4.93;;;24.40;63.10;;;;;;5067647;28;20021;-39
2021/07/26 10:49:50;;;;;;;5.22;4.93;;;24.40;63.50;;;;;;5050474;28;20045;-45
2021/07/26 10:52:21;;;;;;;4.75;4.38;;;24.40;63.20;;;;;;5065479;28;20033;-42
2021/07/26 10:54:47;;;;;;;5.57;5.20;;;24.40;63.00;;;;;;5064579;28;20029;-41
2021/07/26 10:57:14;;;;;;;4.97;4.57;;;24.40;63.10;;;;;;5057992;28;20043;-42
2021/07/26 11:00:07;;;;;;;4.88;4.57;;;24.40;63.40;;;;;;5034796;28;20025;-42
2021/07/26 11:02:37;;;;;;;5.03;4.67;;;24.40;63.50;;;;;;5055786;28;20036;-42
2021/07/26 11:05:27;;;;;;;5.20;4.80;;;24.40;63.40;;;;;;5055540;28;20349;-43
2021/07/26 11:08:11;;;;;;;4.70;4.30;;;24.40;63.30;;;;;;5054116;28;20063;-39
2021/07/26 11:10:46;;;;;;;;;;;24.40;63.10;;;;;;5061582;28;20040;-41
2021/07/26 11:13:12;;;;;;;4.80;4.50;;;24.40;63.40;;;;;;5056436;28;20014;-39
2021/07/26 11:15:46;;;;;;;5.20;4.80;;;24.40;63.40;;;;;;5055505;28;20021;-41
2021/07/26 11:18:40;;;;;;;4.75;4.47;;;24.40;63.40;;;;;;5055462;28;20033;-42
2021/07/26 11:21:10;;;;;;;5.20;4.80;;;24.40;63.60;;;;;;5037633;28;20415;-42
2021/07/26 11:23:44;;;;;;;5.00;4.60;;;24.40;63.80;;;;;;5057283;28;20029;-41
2021/07/26 11:26:29;;;;;;;5.20;4.88;;;24.40;63.90;;;;;;5061789;28;20037;-44
2021/07/26 11:28:56;;;;;;;4.35;4.13;;;24.60;63.60;;;;;;5050608;28;20044;-41
2021/07/26 11:31:25;;;;;;;4.05;3.85;;;24.70;63.50;;;;;;5065244;28;20040;-42
2021/07/26 11:33:52;;;;;;;4.25;4.05;;;24.70;63.40;;;;;;5046224;28;20029;-38
2021/07/26 11:36:18;;;;;;;4.93;4.57;;;24.70;64.40;;;;;;5062020;28;20037;-40
2021/07/26 11:39:03;;;;;;;3.95;3.75;;;24.70;63.80;;;;;;5058586;28;20059;-39
2021/07/26 11:41:29;;;;;;;4.80;4.50;;;24.70;63.60;;;;;;5056157;28;20551;-37
2021/07/26 11:43:55;;;;;;;4.40;4.20;;;24.60;63.60;;;;;;5060963;28;20040;-39
2021/07/26 11:46:22;;;;;;;4.40;4.20;;;24.60;63.50;;;;;;5057593;28;20059;-40
2021/07/26 11:48:51;;;;;;;4.28;3.97;;;24.60;63.40;;;;;;5058984;28;20500;-36
2021/07/26 11:51:31;;;;;;;4.65;4.35;;;24.60;63.20;;;;;;5043399;28;20504;-43
2021/07/26 11:53:58;;;;;;;4.30;4.10;;;24.60;64.00;;;;;;5058240;28;20105;-40
2021/07/26 11:56:23;;;;;;;4.82;4.53;;;24.70;63.10;;;;;;5056336;28;20024;-35
2021/07/26 11:58:49;;;;;;;4.30;4.05;;;24.60;62.90;;;;;;5052599;28;20480;-39
2021/07/26 12:01:14;;;;;;;6.15;4.20;;;24.60;62.80;;;;;;5045017;28;20496;-42
2021/07/26 12:03:40;;;;;;;4.68;4.28;;;24.70;63.00;;;;;;5047135;28;20167;-41
2021/07/26 12:06:05;;;;;;;4.15;3.95;;;24.70;62.80;;;;;;5064853;28;20044;-37
2021/07/26 12:08:31;;;;;;;4.50;4.07;;;24.70;62.70;;;;;;5063905;28;20017;-39
2021/07/26 12:10:57;;;;;;;4.85;4.45;;;24.70;62.50;;;;;;5048589;28;20052;-43
2021/07/26 12:13:23;;;;;;;4.60;4.20;;;24.70;62.50;;;;;;5065623;28;20029;-38
2021/07/26 12:16:12;;;;;;;4.90;4.60;;;24.70;62.40;;;;;;5063981;28;20013;-41
2021/07/26 12:18:37;;;;;;;4.40;4.10;;;24.70;62.50;;;;;;5051456;28;20028;-39
2021/07/26 12:21:03;;;;;;;4.50;4.20;;;24.70;62.40;;;;;;5066754;28;20066;-41
2021/07/26 12:23:30;;;;;;;4.82;4.47;;;24.70;62.40;;;;;;5066468;28;20021;-41
2021/07/26 12:26:09;;;;;;;4.20;4.00;;;24.80;62.50;;;;;;5065940;28;20032;-42
2021/07/26 12:28:51;;;;;;;4.40;4.03;;;24.80;62.50;;;;;;5066022;28;20104;-36
2021/07/26 12:31:32;;;;;;;4.53;4.22;;;24.80;62.30;;;;;;5058187;28;20035;-41
2021/07/26 12:34:13;;;;;;;4.20;3.90;;;24.80;62.50;;;;;;5054425;28;20397;-40
2021/07/26 12:36:38;;;;;;;5.13;4.72;;;24.90;62.80;;;;;;5049959;28;20513;-40
2021/07/26 12:39:06;;;;;;;5.35;4.47;;;24.90;62.40;;;;;;5052382;28;20021;-42
2021/07/26 12:41:32;;;;;;;4.43;4.22;;;24.90;62.30;;;;;;5057655;28;20114;-42
2021/07/26 12:44:15;;;;;;;4.30;3.88;;;25.00;62.20;;;;;;5037084;28;20484;-42
2021/07/26 12:46:46;;;;;;;3.90;3.70;;;25.00;62.30;;;;;;5057580;28;20029;-41
2021/07/26 12:49:13;;;;;;;3.95;3.75;;;25.00;62.30;;;;;;5047752;28;20092;-42
2021/07/26 12:51:39;;;;;;;4.07;3.88;;;25.00;62.30;;;;;;5053443;28;20119;-42
2021/07/26 12:54:04;;;;;;;5.65;5.15;;;25.00;62.10;;;;;;5058443;28;20209;-40
2021/07/26 12:56:30;;;;;;;4.88;4.50;;;25.20;61.80;;;;;;5062019;28;20044;-41